Time;durP1;ratioP1;P1;durP2;ratioP2;P2;SDS_P1;SDS_P2;PMS_P1;PMS_P2;Temp;Humidity;BMP_temperature;BMP_pressure;BME280_temperature;BME280_humidity;BME280_pressure;Samples;Min_cycle;Max_cycle;Signal;HPM_P1;HPM_P2
2021/07/22 00:00:23;;;;;;;19.02;9.73;;;20.30;99.90;;;;;;4967172;28;20509;-92
2021/07/22 00:02:49;;;;;;;19.42;10.20;;;20.30;99.90;;;;;;4983003;28;20042;-91
2021/07/22 00:05:15;;;;;;;19.92;10.20;;;20.20;99.90;;;;;;4977767;28;20022;-92
2021/07/22 00:07:41;;;;;;;18.25;9.77;;;20.20;99.90;;;;;;4985978;28;20022;-94
2021/07/22 00:10:07;;;;;;;19.48;10.68;;;20.20;99.90;;;;;;4997257;28;20026;-92
2021/07/22 00:12:32;;;;;;;16.23;10.35;;;20.20;99.90;;;;;;4989601;28;20115;-93
2021/07/22 00:14:58;;;;;;;20.88;10.32;;;20.10;99.90;;;;;;4975551;28;20058;-91
2021/07/22 00:17:24;;;;;;;21.20;10.80;;;20.10;99.90;;;;;;4977174;28;20098;-93
2021/07/22 00:19:51;;;;;;;18.17;10.52;;;20.10;99.90;;;;;;4960953;28;20035;-92
2021/07/22 00:22:16;;;;;;;17.65;10.77;;;20.00;99.90;;;;;;4960928;28;20026;-92
2021/07/22 00:24:42;;;;;;;19.15;10.70;;;19.90;99.90;;;;;;4978963;28;20074;-93
2021/07/22 00:27:08;;;;;;;17.23;10.27;;;19.80;99.90;;;;;;4960675;28;20098;-93
2021/07/22 00:29:34;;;;;;;17.83;11.00;;;19.80;99.90;;;;;;4961065;28;20464;-91
2021/07/22 00:32:00;;;;;;;21.38;10.98;;;19.70;99.90;;;;;;4961010;28;20023;-91
2021/07/22 00:34:26;;;;;;;22.17;10.45;;;19.70;99.90;;;;;;4961051;28;20038;-92
2021/07/22 00:36:51;;;;;;;17.73;10.60;;;19.70;99.90;;;;;;4961537;28;20026;-92
2021/07/22 00:39:18;;;;;;;16.95;9.93;;;19.70;99.90;;;;;;4961032;28;20066;-91
2021/07/22 00:41:44;;;;;;;17.88;10.43;;;19.70;99.90;;;;;;4960778;28;20031;-92
2021/07/22 00:44:09;;;;;;;15.38;9.55;;;19.60;99.90;;;;;;4961162;28;20114;-92
2021/07/22 00:46:36;;;;;;;19.45;9.90;;;19.60;99.90;;;;;;4961242;28;20754;-91
2021/07/22 00:49:01;;;;;;;19.00;10.13;;;19.50;99.90;;;;;;4961326;28;20059;-92
2021/07/22 00:51:27;;;;;;;17.02;10.13;;;19.50;99.90;;;;;;4960533;28;20053;-92
2021/07/22 00:53:53;;;;;;;18.85;10.27;;;19.50;99.90;;;;;;4961497;28;20039;-91
2021/07/22 00:56:18;;;;;;;18.10;10.25;;;19.40;99.90;;;;;;4960085;28;20054;-93
2021/07/22 00:58:44;;;;;;;17.45;10.95;;;19.40;99.90;;;;;;4960351;28;20027;-92
2021/07/22 01:01:10;;;;;;;17.15;10.15;;;19.30;99.90;;;;;;4958993;28;20046;-92
2021/07/22 01:03:36;;;;;;;16.02;9.77;;;19.20;99.90;;;;;;4960388;28;20067;-92
2021/07/22 01:06:03;;;;;;;15.15;10.00;;;19.10;99.90;;;;;;4960757;28;20023;-92
2021/07/22 01:08:29;;;;;;;15.30;9.65;;;19.10;99.90;;;;;;4960181;28;20023;-92
2021/07/22 01:10:54;;;;;;;17.83;10.02;;;19.10;99.90;;;;;;4960409;28;20391;-92
2021/07/22 01:13:20;;;;;;;16.58;10.18;;;19.00;99.90;;;;;;4960971;28;20033;-92
2021/07/22 01:15:46;;;;;;;18.75;10.40;;;19.00;99.90;;;;;;4966346;28;20138;-92
2021/07/22 01:18:11;;;;;;;18.77;11.25;;;18.90;99.90;;;;;;4977147;28;20062;-92
2021/07/22 01:20:37;;;;;;;18.75;10.80;;;18.90;99.90;;;;;;4960882;28;20050;-92
2021/07/22 01:23:03;;;;;;;18.75;10.93;;;18.80;99.90;;;;;;4977258;28;20023;-93
2021/07/22 01:25:29;;;;;;;18.88;10.90;;;18.80;99.90;;;;;;4976463;28;20093;-93
2021/07/22 01:27:56;;;;;;;18.92;11.73;;;18.80;99.90;;;;;;4977857;28;20082;-92
2021/07/22 01:30:22;;;;;;;18.02;10.98;;;18.80;99.90;;;;;;4976589;28;20023;-92
2021/07/22 01:32:49;;;;;;;16.63;10.00;;;18.80;99.90;;;;;;4979759;28;20026;-93
2021/07/22 01:35:16;;;;;;;21.25;10.35;;;18.80;99.90;;;;;;4992111;28;20086;-92
2021/07/22 01:37:43;;;;;;;20.55;12.25;;;18.80;99.90;;;;;;4996655;28;20019;-93
2021/07/22 01:40:10;;;;;;;18.92;10.52;;;18.80;99.90;;;;;;4994821;28;20062;-93
2021/07/22 01:42:36;;;;;;;19.42;10.82;;;18.80;99.90;;;;;;4986677;28;20027;-92
2021/07/22 01:45:06;;;;;;;22.13;11.85;;;18.80;99.90;;;;;;4984197;28;20037;-92
2021/07/22 01:47:37;;;;;;;21.70;12.07;;;18.80;99.90;;;;;;4983283;28;20046;-93
2021/07/22 01:50:04;;;;;;;17.73;11.38;;;18.80;99.90;;;;;;4982100;28;20094;-93
2021/07/22 01:52:30;;;;;;;16.60;10.10;;;18.80;99.90;;;;;;4979099;28;20104;-91
2021/07/22 01:54:56;;;;;;;24.35;10.93;;;18.80;99.90;;;;;;4977448;28;20031;-92
2021/07/22 01:57:22;;;;;;;17.15;10.68;;;18.80;99.90;;;;;;4977855;28;20022;-91
2021/07/22 01:59:48;;;;;;;16.38;10.20;;;18.70;99.90;;;;;;4977422;28;20181;-91
2021/07/22 02:02:14;;;;;;;17.77;9.95;;;18.70;99.90;;;;;;4977289;28;20058;-91
2021/07/22 02:04:40;;;;;;;17.70;11.00;;;18.60;99.90;;;;;;4977338;28;20023;-92
2021/07/22 02:07:06;;;;;;;19.83;9.80;;;18.60;99.90;;;;;;4976573;28;20023;-92
2021/07/22 02:09:32;;;;;;;16.08;9.63;;;18.50;99.90;;;;;;4976242;28;20074;-93
2021/07/22 02:11:59;;;;;;;16.48;9.43;;;18.50;99.90;;;;;;4979249;28;20035;-91
2021/07/22 02:14:25;;;;;;;15.75;9.77;;;18.50;99.90;;;;;;4980637;28;20031;-93
2021/07/22 02:16:51;;;;;;;18.95;9.65;;;18.50;99.90;;;;;;4979698;28;20046;-93
2021/07/22 02:19:17;;;;;;;16.98;10.02;;;18.50;99.90;;;;;;4980936;28;20051;-93
2021/07/22 02:21:43;;;;;;;17.98;11.05;;;18.40;99.90;;;;;;4980816;28;20143;-93
2021/07/22 02:24:10;;;;;;;17.85;11.00;;;18.40;99.90;;;;;;4979945;28;20126;-92
2021/07/22 02:26:36;;;;;;;15.43;10.38;;;18.30;99.90;;;;;;4979885;28;20522;-92
2021/07/22 02:29:03;;;;;;;19.27;10.70;;;18.30;99.90;;;;;;4980066;28;20031;-92
2021/07/22 02:31:29;;;;;;;16.05;10.80;;;18.30;99.90;;;;;;4979929;28;20031;-92
2021/07/22 02:33:55;;;;;;;18.38;10.38;;;18.30;99.90;;;;;;4980351;28;20026;-92
2021/07/22 02:36:21;;;;;;;16.50;10.20;;;18.30;99.90;;;;;;4979869;28;20027;-91
2021/07/22 02:38:46;;;;;;;16.85;10.30;;;18.20;99.90;;;;;;4979124;28;20093;-92
2021/07/22 02:41:12;;;;;;;18.50;10.38;;;18.30;99.90;;;;;;4979508;28;20034;-91
2021/07/22 02:43:41;;;;;;;14.52;9.63;;;18.20;99.90;;;;;;4979809;28;20030;-91
2021/07/22 02:46:07;;;;;;;16.08;9.70;;;18.10;99.90;;;;;;4979336;28;20034;-92
2021/07/22 02:48:35;;;;;;;19.85;10.10;;;18.10;99.90;;;;;;4979730;28;20037;-92
2021/07/22 02:51:03;;;;;;;17.83;10.45;;;18.10;99.90;;;;;;4979238;28;20038;-92
2021/07/22 02:53:29;;;;;;;18.92;10.85;;;18.00;99.90;;;;;;4979352;28;20110;-92
2021/07/22 02:55:59;;;;;;;17.95;10.32;;;18.00;99.90;;;;;;4979105;28;20064;-92
2021/07/22 02:58:25;;;;;;;20.20;11.50;;;18.00;99.90;;;;;;4979297;28;20043;-91
2021/07/22 03:00:52;;;;;;;17.83;11.45;;;18.00;99.90;;;;;;4976459;28;20035;-92
2021/07/22 03:03:18;;;;;;;21.33;11.73;;;17.90;99.90;;;;;;4979491;28;20041;-92
2021/07/22 03:05:44;;;;;;;20.35;12.18;;;17.90;99.90;;;;;;4978228;28;20031;-93
2021/07/22 03:08:10;;;;;;;21.70;11.40;;;17.80;99.90;;;;;;4975558;28;20019;-92
2021/07/22 03:10:37;;;;;;;22.42;13.07;;;17.80;99.90;;;;;;4978274;28;20031;-92
2021/07/22 03:13:03;;;;;;;21.35;11.43;;;17.80;99.90;;;;;;4980121;28;20019;-94
2021/07/22 03:15:30;;;;;;;19.40;11.52;;;17.80;99.90;;;;;;4979176;28;20042;-93
2021/07/22 03:17:56;;;;;;;19.75;11.05;;;17.80;99.90;;;;;;4978872;28;20023;-94
2021/07/22 03:20:21;;;;;;;21.40;11.88;;;17.70;99.90;;;;;;4980298;28;20027;-93
2021/07/22 03:22:47;;;;;;;20.50;11.98;;;17.70;99.90;;;;;;4979576;28;20487;-95
2021/07/22 03:25:13;;;;;;;22.27;12.93;;;17.70;99.90;;;;;;4980556;28;20019;-93
2021/07/22 03:27:39;;;;;;;21.65;11.85;;;17.70;99.90;;;;;;4986711;28;20039;-93
2021/07/22 03:30:08;;;;;;;20.27;13.30;;;17.70;99.90;;;;;;4993069;28;20051;-93
2021/07/22 03:32:35;;;;;;;22.27;13.02;;;17.70;99.90;;;;;;4981450;28;20023;-93
2021/07/22 03:35:01;;;;;;;25.02;12.90;;;17.60;99.90;;;;;;4990403;28;20029;-93
2021/07/22 03:37:27;;;;;;;22.33;11.75;;;17.50;99.90;;;;;;4985830;28;20019;-94
2021/07/22 03:39:52;;;;;;;19.10;12.38;;;17.50;99.90;;;;;;4982019;28;20435;-95
2021/07/22 03:42:21;;;;;;;21.60;12.15;;;17.40;99.90;;;;;;4978821;28;20082;-94
2021/07/22 03:44:46;;;;;;;19.05;11.20;;;17.40;99.90;;;;;;4978141;28;20431;-94
2021/07/22 03:47:12;;;;;;;22.15;11.82;;;17.40;99.90;;;;;;4979032;28;20022;-92
2021/07/22 03:49:38;;;;;;;19.40;11.63;;;17.40;99.90;;;;;;4978475;28;20023;-93
2021/07/22 03:52:04;;;;;;;19.13;11.45;;;17.30;99.90;;;;;;4978380;28;20090;-92
2021/07/22 03:54:30;;;;;;;24.13;11.85;;;17.30;99.90;;;;;;4978113;28;20054;-93
2021/07/22 03:56:56;;;;;;;18.98;11.80;;;17.30;99.90;;;;;;4977802;28;20030;-93
2021/07/22 03:59:21;;;;;;;21.67;11.10;;;17.20;99.90;;;;;;4977691;28;20077;-93
2021/07/22 04:01:47;;;;;;;20.88;10.38;;;17.20;99.90;;;;;;4978100;28;20019;-92
2021/07/22 04:04:13;;;;;;;21.23;11.68;;;17.10;99.90;;;;;;4978107;28;20033;-91
2021/07/22 04:06:40;;;;;;;21.05;12.63;;;17.20;99.90;;;;;;4960835;28;20103;-93
2021/07/22 04:09:06;;;;;;;18.58;11.77;;;17.20;99.90;;;;;;4976921;28;20480;-94
2021/07/22 04:11:33;;;;;;;20.63;11.02;;;17.20;99.90;;;;;;4977338;28;20408;-93
2021/07/22 04:13:58;;;;;;;25.00;12.50;;;17.20;99.90;;;;;;4977855;28;20038;-95
2021/07/22 04:16:24;;;;;;;23.55;12.35;;;17.20;99.90;;;;;;4977538;28;20050;-93
2021/07/22 04:18:50;;;;;;;22.98;13.32;;;17.20;99.90;;;;;;4977303;28;20081;-92
2021/07/22 04:21:15;;;;;;;23.88;11.55;;;17.20;99.90;;;;;;4977796;28;20045;-93
2021/07/22 04:23:42;;;;;;;21.52;12.27;;;17.30;99.90;;;;;;4977654;28;20388;-93
2021/07/22 04:26:14;;;;;;;23.27;11.60;;;17.20;99.90;;;;;;4977902;28;20026;-93
2021/07/22 04:28:39;;;;;;;22.77;13.02;;;17.20;99.90;;;;;;4977970;28;20054;-93
2021/07/22 04:31:05;;;;;;;23.92;12.30;;;17.20;99.90;;;;;;4977654;28;20129;-93
2021/07/22 04:33:31;;;;;;;21.40;12.13;;;17.10;99.90;;;;;;4976950;28;20074;-93
2021/07/22 04:35:56;;;;;;;22.58;12.93;;;17.10;99.90;;;;;;4979741;28;20031;-93
2021/07/22 04:38:22;;;;;;;21.83;11.65;;;17.10;99.90;;;;;;4977866;28;20113;-92
2021/07/22 04:40:48;;;;;;;24.50;12.80;;;17.00;99.90;;;;;;4977882;28;20049;-93
2021/07/22 04:43:13;;;;;;;22.00;12.32;;;17.00;99.90;;;;;;4979609;28;20026;-92
2021/07/22 04:45:39;;;;;;;24.25;12.32;;;17.00;99.90;;;;;;4995561;28;20090;-93
2021/07/22 04:48:06;;;;;;;19.45;11.40;;;16.90;99.90;;;;;;4977587;28;20117;-93
2021/07/22 04:50:32;;;;;;;20.65;11.38;;;16.90;99.90;;;;;;4977811;28;20045;-94
2021/07/22 04:52:59;;;;;;;24.83;12.32;;;16.90;99.90;;;;;;4979720;28;20027;-92
2021/07/22 04:55:25;;;;;;;20.52;11.52;;;16.80;99.90;;;;;;4982619;28;20074;-92
2021/07/22 04:58:00;;;;;;;25.20;12.80;;;16.80;99.90;;;;;;4982582;28;20026;-92
2021/07/22 05:00:26;;;;;;;23.23;12.57;;;16.80;99.90;;;;;;4983473;28;20027;-93
2021/07/22 05:02:59;;;;;;;27.67;13.95;;;16.80;99.90;;;;;;4982465;28;20035;-93
2021/07/22 05:05:26;;;;;;;27.77;14.38;;;16.80;99.90;;;;;;4980442;28;20057;-93
2021/07/22 05:07:51;;;;;;;31.48;15.48;;;16.80;99.90;;;;;;4982148;28;20030;-92
2021/07/22 05:10:17;;;;;;;34.58;16.92;;;16.90;99.90;;;;;;4982533;28;20034;-93
2021/07/22 05:12:43;;;;;;;33.72;18.20;;;16.90;99.90;;;;;;4982534;28;20476;-92
2021/07/22 05:15:09;;;;;;;26.02;14.80;;;16.90;99.90;;;;;;4983182;28;20461;-93
2021/07/22 05:17:41;;;;;;;29.50;14.48;;;16.90;99.90;;;;;;4968119;28;20049;-93
2021/07/22 05:20:07;;;;;;;24.00;14.38;;;16.90;99.90;;;;;;4966493;28;20029;-94
2021/07/22 05:22:32;;;;;;;25.65;15.10;;;17.00;99.90;;;;;;4966235;28;20117;-93
2021/07/22 05:24:58;;;;;;;24.45;14.23;;;16.90;99.90;;;;;;4969479;28;20023;-92
2021/07/22 05:27:25;;;;;;;24.60;15.02;;;17.00;99.90;;;;;;4969373;28;20627;-94
2021/07/22 05:29:51;;;;;;;25.65;13.85;;;16.90;99.90;;;;;;4965902;28;20026;-92
2021/07/22 05:32:17;;;;;;;28.13;13.80;;;17.00;99.90;;;;;;4965302;28;20046;-92
2021/07/22 05:34:42;;;;;;;21.35;12.05;;;16.90;99.90;;;;;;4964272;28;20480;-93
2021/07/22 05:37:10;;;;;;;26.90;13.95;;;16.90;99.90;;;;;;4961527;28;20027;-93
2021/07/22 05:39:36;;;;;;;23.13;13.23;;;16.90;99.90;;;;;;4961615;28;20047;-94
2021/07/22 05:42:03;;;;;;;23.17;12.85;;;16.90;99.90;;;;;;4961468;28;20035;-94
2021/07/22 05:44:29;;;;;;;26.45;13.82;;;16.90;99.90;;;;;;4961208;28;20041;-93
2021/07/22 05:46:55;;;;;;;21.83;12.27;;;16.90;99.90;;;;;;4944806;28;20047;-94
2021/07/22 05:49:20;;;;;;;26.05;14.35;;;16.90;99.90;;;;;;4960207;28;20443;-94
2021/07/22 05:51:46;;;;;;;25.15;13.70;;;17.00;99.90;;;;;;4959860;28;20500;-95
2021/07/22 05:54:11;;;;;;;23.17;13.07;;;17.00;99.90;;;;;;4960421;28;20577;-92
2021/07/22 05:56:37;;;;;;;23.90;13.65;;;17.00;99.90;;;;;;4961660;28;20030;-94
2021/07/22 05:59:03;;;;;;;23.48;12.10;;;17.00;99.90;;;;;;4966775;28;20041;-93
2021/07/22 06:01:29;;;;;;;25.05;12.98;;;17.00;99.90;;;;;;4969653;28;20499;-94
2021/07/22 06:03:55;;;;;;;22.65;13.52;;;17.10;99.90;;;;;;4959518;28;20477;-94
2021/07/22 06:06:20;;;;;;;23.95;13.50;;;17.10;99.90;;;;;;4959851;28;20031;-93
2021/07/22 06:08:49;;;;;;;23.23;13.27;;;17.20;99.90;;;;;;4960108;28;20050;-94
2021/07/22 06:11:15;;;;;;;23.55;12.82;;;17.20;99.90;;;;;;4944449;28;20043;-94
2021/07/22 06:13:41;;;;;;;22.40;12.50;;;17.30;99.90;;;;;;4960247;28;20034;-94
2021/07/22 06:16:12;;;;;;;24.08;13.38;;;17.40;99.90;;;;;;4967622;28;20138;-94
2021/07/22 06:18:40;;;;;;;23.73;13.00;;;17.40;99.90;;;;;;4980335;28;20026;-95
2021/07/22 06:21:06;;;;;;;22.45;12.48;;;17.50;99.90;;;;;;4975346;28;20137;-95
2021/07/22 06:23:32;;;;;;;24.20;13.73;;;17.50;99.90;;;;;;4975752;28;20575;-94
2021/07/22 06:25:59;;;;;;;21.42;13.10;;;17.60;99.90;;;;;;4975591;28;20023;-94
2021/07/22 06:28:26;;;;;;;24.92;13.60;;;17.60;99.90;;;;;;4975622;28;20031;-94
2021/07/22 06:30:53;;;;;;;22.17;13.45;;;17.70;99.90;;;;;;4975198;28;20042;-95
2021/07/22 06:33:19;;;;;;;20.15;13.32;;;17.80;99.90;;;;;;4975598;28;20045;-94
2021/07/22 06:35:45;;;;;;;23.85;13.45;;;17.90;99.90;;;;;;4975332;28;20022;-94
2021/07/22 06:38:11;;;;;;;27.63;13.75;;;18.00;99.90;;;;;;4975533;28;20030;-93
2021/07/22 06:40:37;;;;;;;23.92;13.02;;;18.10;99.90;;;;;;4975604;28;20497;-92
2021/07/22 06:43:02;;;;;;;22.92;13.25;;;18.10;99.90;;;;;;4976424;28;20026;-93
2021/07/22 06:45:28;;;;;;;23.10;12.68;;;18.20;99.90;;;;;;4975994;28;20031;-95
2021/07/22 06:47:54;;;;;;;25.40;12.35;;;18.30;99.90;;;;;;4976542;28;20031;-94
2021/07/22 06:50:20;;;;;;;24.55;13.13;;;18.40;99.90;;;;;;4977731;28;20034;-94
2021/07/22 06:52:46;;;;;;;24.45;13.27;;;18.40;99.90;;;;;;4976113;28;20329;-94
2021/07/22 06:55:12;;;;;;;23.95;12.68;;;18.50;99.90;;;;;;4974672;28;20515;-94
2021/07/22 06:57:37;;;;;;;21.90;12.95;;;18.60;99.90;;;;;;4976740;28;20045;-93
2021/07/22 07:00:04;;;;;;;25.45;13.73;;;18.70;99.90;;;;;;4978699;28;20085;-93
2021/07/22 07:02:30;;;;;;;21.85;13.63;;;18.70;99.90;;;;;;4978914;28;20117;-94
2021/07/22 07:04:56;;;;;;;21.98;12.98;;;18.90;99.90;;;;;;4978793;28;20058;-94
2021/07/22 07:07:21;;;;;;;22.67;11.88;;;18.90;99.90;;;;;;4984384;28;20029;-93
2021/07/22 07:09:47;;;;;;;19.70;11.90;;;19.10;99.90;;;;;;4985440;28;20121;-94
2021/07/22 07:12:13;;;;;;;23.02;12.25;;;19.10;99.90;;;;;;4980687;28;20113;-94
2021/07/22 07:14:38;;;;;;;21.23;12.43;;;19.30;99.90;;;;;;4989397;28;20022;-95
2021/07/22 07:17:04;;;;;;;21.63;12.60;;;19.30;99.90;;;;;;4988410;28;20404;-94
2021/07/22 07:19:30;;;;;;;19.92;12.07;;;19.50;99.90;;;;;;4977557;28;20084;-94
2021/07/22 07:21:56;;;;;;;21.52;11.30;;;19.60;99.90;;;;;;4978385;28;20420;-93
2021/07/22 07:24:22;;;;;;;21.95;11.68;;;19.70;99.90;;;;;;4978647;28;20118;-93
2021/07/22 07:26:47;;;;;;;22.73;11.57;;;19.80;99.90;;;;;;4978281;28;20480;-94
2021/07/22 07:29:14;;;;;;;21.52;13.40;;;19.90;99.90;;;;;;4979175;28;20045;-94
2021/07/22 07:31:40;;;;;;;28.60;13.10;;;20.00;99.90;;;;;;4980623;28;20042;-94
2021/07/22 07:34:06;;;;;;;22.80;12.07;;;20.10;99.90;;;;;;4982432;28;20069;-95
2021/07/22 07:36:32;;;;;;;17.15;11.13;;;20.20;99.90;;;;;;4993193;28;20021;-93
2021/07/22 07:38:57;;;;;;;18.73;11.43;;;20.30;99.90;;;;;;4985692;28;20023;-96
2021/07/22 07:41:23;;;;;;;24.30;12.68;;;20.40;99.90;;;;;;4978047;28;20027;-92
2021/07/22 07:43:49;;;;;;;21.95;12.45;;;20.60;99.90;;;;;;4978277;28;20555;-93
2021/07/22 07:46:14;;;;;;;20.17;11.23;;;20.70;99.90;;;;;;4976841;28;20496;-93
2021/07/22 07:48:40;;;;;;;18.00;11.30;;;20.80;99.90;;;;;;4976996;28;20027;-94
2021/07/22 07:51:08;;;;;;;24.02;12.38;;;21.00;99.90;;;;;;4978484;28;20619;-94
2021/07/22 07:53:36;;;;;;;17.10;10.15;;;21.10;99.90;;;;;;4978111;28;20027;-93
2021/07/22 07:56:02;;;;;;;15.88;10.75;;;21.20;99.90;;;;;;4978082;28;20057;-94
2021/07/22 07:58:28;;;;;;;21.00;9.95;;;21.30;99.90;;;;;;4978760;28;20023;-93
2021/07/22 08:00:53;;;;;;;23.83;11.40;;;21.40;99.90;;;;;;4983368;28;20114;-94
2021/07/22 08:03:21;;;;;;;19.88;10.25;;;21.60;99.90;;;;;;4978524;28;20095;-95
2021/07/22 08:05:47;;;;;;;19.95;10.65;;;21.60;99.90;;;;;;4977265;28;20046;-93
2021/07/22 08:08:13;;;;;;;18.10;10.27;;;21.80;99.90;;;;;;4977122;28;20453;-92
2021/07/22 08:10:43;;;;;;;18.75;10.27;;;21.90;99.90;;;;;;4977558;28;20515;-94
2021/07/22 08:13:10;;;;;;;15.45;9.63;;;22.00;99.90;;;;;;4977222;28;20041;-94
2021/07/22 08:15:37;;;;;;;16.17;9.07;;;22.20;99.90;;;;;;4977082;28;20039;-91
2021/07/22 08:18:03;;;;;;;14.90;8.73;;;22.40;99.90;;;;;;4977992;28;20050;-93
2021/07/22 08:20:28;;;;;;;16.30;8.50;;;22.50;99.90;;;;;;4981545;28;20030;-92
2021/07/22 08:22:54;;;;;;;13.52;9.25;;;22.70;99.90;;;;;;4980272;28;20030;-93
2021/07/22 08:25:20;;;;;;;16.67;8.63;;;22.80;99.90;;;;;;4977103;28;20066;-92
2021/07/22 08:27:46;;;;;;;19.00;9.43;;;23.00;99.90;;;;;;4977329;28;20042;-93
2021/07/22 08:30:11;;;;;;;23.25;9.63;;;23.10;99.90;;;;;;4987088;28;20046;-92
2021/07/22 08:32:37;;;;;;;18.05;10.27;;;23.30;99.90;;;;;;4983401;28;20110;-94
2021/07/22 08:35:04;;;;;;;16.35;10.15;;;23.40;99.90;;;;;;4977507;28;20081;-94
2021/07/22 08:37:29;;;;;;;16.05;8.45;;;23.60;99.90;;;;;;4977163;28;20018;-93
2021/07/22 08:40:00;;;;;;;14.68;8.50;;;23.70;99.90;;;;;;4977276;28;20022;-93
2021/07/22 08:42:27;;;;;;;14.40;8.32;;;23.90;99.90;;;;;;4976948;28;20026;-93
2021/07/22 08:44:54;;;;;;;14.25;7.65;;;24.10;99.90;;;;;;4979854;28;20388;-94
2021/07/22 08:47:20;;;;;;;17.88;8.10;;;24.20;99.30;;;;;;4976494;28;20037;-95
2021/07/22 08:49:45;;;;;;;12.32;6.90;;;24.40;98.60;;;;;;4975774;28;20028;-94
2021/07/22 08:52:12;;;;;;;20.02;8.07;;;24.60;97.90;;;;;;4974922;28;20070;-94
2021/07/22 08:54:39;;;;;;;17.63;6.97;;;24.80;97.00;;;;;;4978419;28;20027;-96
2021/07/22 08:57:10;;;;;;;14.63;7.30;;;25.00;96.20;;;;;;4977023;28;20030;-93
2021/07/22 08:59:36;;;;;;;14.50;7.15;;;25.20;94.90;;;;;;4977940;28;20054;-93
2021/07/22 09:02:03;;;;;;;11.55;7.30;;;25.30;94.20;;;;;;4980864;28;20507;-95
2021/07/22 09:04:29;;;;;;;9.05;6.90;;;25.50;93.40;;;;;;4986478;28;20042;-94
2021/07/22 09:06:58;;;;;;;9.38;6.32;;;25.70;92.30;;;;;;4993054;28;20030;-93
2021/07/22 09:09:24;;;;;;;15.25;7.47;;;25.90;91.30;;;;;;4985960;28;20384;-93
2021/07/22 09:11:56;;;;;;;13.27;6.15;;;26.10;90.50;;;;;;4978094;28;20049;-92
2021/07/22 09:14:24;;;;;;;12.75;6.90;;;26.30;89.50;;;;;;4980716;28;20027;-92
2021/07/22 09:16:50;;;;;;;12.85;6.47;;;26.50;88.10;;;;;;4977317;28;20566;-93
2021/07/22 09:19:38;;;;;;;12.40;6.45;;;26.70;86.20;;;;;;4977496;28;20027;-94
2021/07/22 09:22:06;;;;;;;14.82;7.28;;;26.80;84.00;;;;;;4987594;28;20087;-93
2021/07/22 09:24:46;;;;;;;10.05;6.43;;;26.90;83.10;;;;;;4973725;28;20033;-96
2021/07/22 09:27:43;;;;;;;12.75;6.18;;;27.10;82.20;;;;;;4973871;28;20065;-93
2021/07/22 09:30:15;;;;;;;11.90;6.35;;;27.30;81.50;;;;;;4973689;28;20038;-93
2021/07/22 09:32:45;;;;;;;13.13;6.32;;;27.50;80.40;;;;;;4969287;28;20058;-94
2021/07/22 09:35:12;;;;;;;10.90;6.90;;;27.60;79.30;;;;;;4973883;28;20030;-95
2021/07/22 09:37:48;;;;;;;11.27;6.43;;;27.70;78.40;;;;;;4971231;28;20110;-93
2021/07/22 09:40:38;;;;;;;13.77;7.60;;;27.90;76.70;;;;;;4974058;28;20443;-93
2021/07/22 09:43:03;;;;;;;14.07;6.82;;;28.00;76.10;;;;;;4988061;28;20027;-93
2021/07/22 09:45:30;;;;;;;16.05;7.18;;;28.10;76.10;;;;;;4983173;28;20045;-92
2021/07/22 09:48:11;;;;;;;15.38;7.10;;;28.20;75.60;;;;;;4990723;28;20377;-93
2021/07/22 09:50:44;;;;;;;15.23;6.40;;;28.40;74.60;;;;;;4968448;28;20048;-92
2021/07/22 09:53:11;;;;;;;12.95;7.10;;;28.60;74.10;;;;;;4973924;28;20493;-92
2021/07/22 09:55:39;;;;;;;8.88;6.78;;;28.70;73.10;;;;;;4974758;28;20030;-92
2021/07/22 09:58:10;;;;;;;14.10;7.75;;;28.70;72.70;;;;;;4974893;28;20380;-93
2021/07/22 10:00:40;;;;;;;13.10;7.03;;;28.80;71.70;;;;;;4974915;28;20090;-90
2021/07/22 10:03:19;;;;;;;15.40;8.30;;;28.90;71.20;;;;;;4975153;28;20022;-92
2021/07/22 10:06:08;;;;;;;14.77;8.52;;;29.00;69.90;;;;;;4975115;28;20035;-93
2021/07/22 10:08:35;;;;;;;16.95;9.80;;;29.20;69.10;;;;;;4974635;28;20034;-92
2021/07/22 10:11:04;;;;;;;16.20;8.95;;;29.30;68.40;;;;;;4974731;28;20129;-92
2021/07/22 10:13:39;;;;;;;15.98;8.32;;;29.50;68.10;;;;;;4974737;28;20019;-92
2021/07/22 10:16:16;;;;;;;14.23;9.05;;;29.80;67.10;;;;;;4974417;28;20047;-91
2021/07/22 10:18:47;;;;;;;13.75;8.30;;;29.90;65.90;;;;;;4973491;28;20134;-93
2021/07/22 10:21:14;;;;;;;13.35;8.77;;;30.10;65.50;;;;;;4973583;28;20023;-93
2021/07/22 10:23:41;;;;;;;14.75;8.82;;;30.20;64.70;;;;;;4973594;28;20109;-92
2021/07/22 10:26:07;;;;;;;14.32;8.57;;;30.30;64.50;;;;;;4975576;28;20023;-93
2021/07/22 10:28:34;;;;;;;17.45;8.57;;;30.50;64.10;;;;;;4976555;28;20022;-94
2021/07/22 10:31:04;;;;;;;14.48;7.28;;;30.60;63.70;;;;;;4974321;28;20030;-94
2021/07/22 10:33:30;;;;;;;14.55;7.00;;;30.70;63.50;;;;;;4977584;28;20062;-92
2021/07/22 10:35:56;;;;;;;14.82;7.45;;;30.70;63.40;;;;;;4978112;28;20027;-94
2021/07/22 10:38:27;;;;;;;17.90;7.88;;;30.80;63.40;;;;;;4978348;28;20022;-96
2021/07/22 10:41:01;;;;;;;10.55;6.80;;;30.80;63.40;;;;;;4978053;28;20377;-93
2021/07/22 10:43:36;;;;;;;11.50;7.55;;;30.80;63.00;;;;;;4977612;28;20019;-95
2021/07/22 10:46:07;;;;;;;13.70;8.20;;;30.80;62.00;;;;;;4978732;28;20023;-93
2021/07/22 10:48:33;;;;;;;12.43;7.43;;;30.90;61.30;;;;;;4976007;28;20023;-93
2021/07/22 10:51:00;;;;;;;13.02;7.80;;;31.00;60.40;;;;;;4978573;28;20034;-93
2021/07/22 10:53:47;;;;;;;13.35;8.50;;;31.00;59.60;;;;;;4978179;28;20027;-92
2021/07/22 10:56:23;;;;;;;16.02;7.50;;;31.20;59.30;;;;;;4979655;28;20034;-95
2021/07/22 10:58:54;;;;;;;13.60;8.13;;;31.40;59.20;;;;;;4980148;28;20532;-94
2021/07/22 11:01:42;;;;;;;16.02;8.80;;;31.30;59.10;;;;;;4989980;28;20050;-93
2021/07/22 11:04:22;;;;;;;13.68;8.10;;;31.00;59.00;;;;;;4983183;28;20037;-93
2021/07/22 11:07:02;;;;;;;11.70;7.55;;;30.80;59.50;;;;;;4977983;28;20023;-92
2021/07/22 11:09:51;;;;;;;10.45;7.68;;;30.80;60.10;;;;;;4977429;28;20173;-93
2021/07/22 11:12:37;;;;;;;11.90;7.10;;;30.70;60.30;;;;;;4976265;28;20031;-92
2021/07/22 11:15:15;;;;;;;13.10;8.57;;;30.90;60.60;;;;;;4977571;28;20031;-93
2021/07/22 11:17:43;;;;;;;22.13;8.15;;;31.00;60.40;;;;;;4961734;28;20043;-94
2021/07/22 11:20:21;;;;;;;16.83;7.22;;;31.20;60.00;;;;;;4952002;28;20024;-93
2021/07/22 11:22:50;;;;;;;15.23;8.30;;;31.40;59.50;;;;;;4957260;28;21541;-93
2021/07/22 11:25:17;;;;;;;17.20;8.53;;;31.60;59.20;;;;;;4950855;28;20031;-91
2021/07/22 11:27:50;;;;;;;11.75;7.30;;;31.80;58.70;;;;;;4958138;28;20042;-91
2021/07/22 11:30:17;;;;;;;13.75;8.73;;;32.00;58.30;;;;;;4959080;28;20535;-92
2021/07/22 11:32:46;;;;;;;11.13;7.55;;;32.10;57.90;;;;;;4964328;28;20034;-94
2021/07/22 11:35:12;;;;;;;15.43;8.80;;;32.00;57.70;;;;;;4959988;28;20107;-92
2021/07/22 11:37:41;;;;;;;17.92;7.80;;;32.00;57.40;;;;;;4953109;28;20092;-96
2021/07/22 11:40:16;;;;;;;11.55;7.35;;;32.10;57.40;;;;;;4958707;28;20019;-92
2021/07/22 11:42:49;;;;;;;18.20;9.88;;;32.30;57.50;;;;;;4965182;28;20043;-94
2021/07/22 11:45:14;;;;;;;12.13;7.30;;;32.30;56.90;;;;;;4967562;28;20617;-93
2021/07/22 11:47:40;;;;;;;18.33;7.35;;;32.40;57.20;;;;;;4964900;28;20114;-93
2021/07/22 11:50:07;;;;;;;14.27;7.50;;;32.50;57.10;;;;;;4955405;28;20031;-93
2021/07/22 11:52:32;;;;;;;16.20;8.70;;;32.60;56.90;;;;;;4958307;28;20038;-93
2021/07/22 11:55:06;;;;;;;14.35;8.02;;;32.60;56.50;;;;;;4952681;28;20608;-95
2021/07/22 11:57:39;;;;;;;11.20;6.55;;;32.60;56.30;;;;;;4948702;28;20031;-94
2021/07/22 12:00:33;;;;;;;11.27;7.20;;;32.70;56.20;;;;;;4959070;28;20031;-94
2021/07/22 12:02:59;;;;;;;13.25;6.90;;;32.80;56.30;;;;;;4947978;28;20040;-95
2021/07/22 12:05:26;;;;;;;13.75;7.38;;;32.80;56.20;;;;;;4952757;28;20027;-92
2021/07/22 12:07:57;;;;;;;14.27;7.60;;;32.60;55.90;;;;;;4958993;28;20110;-93
2021/07/22 12:10:32;;;;;;;12.48;6.57;;;32.50;55.70;;;;;;4952567;28;20178;-94
2021/07/22 12:13:09;;;;;;;10.43;7.38;;;32.60;55.80;;;;;;4954181;28;20532;-96
2021/07/22 12:15:41;;;;;;;11.15;7.75;;;32.80;55.50;;;;;;4972073;28;20042;-94
2021/07/22 12:18:09;;;;;;;11.32;6.82;;;33.00;55.20;;;;;;4967905;28;20035;-94
2021/07/22 12:20:35;;;;;;;12.95;7.28;;;33.20;55.10;;;;;;4953068;28;20035;-93
2021/07/22 12:23:34;;;;;;;12.13;7.68;;;33.30;55.00;;;;;;4970709;28;20023;-93
2021/07/22 12:26:04;;;;;;;14.90;7.28;;;33.30;55.40;;;;;;4965846;28;20439;-92
2021/07/22 12:28:32;;;;;;;10.45;7.22;;;33.30;55.30;;;;;;4961876;28;20579;-93
2021/07/22 12:31:22;;;;;;;12.70;7.43;;;33.30;55.40;;;;;;4962446;28;20070;-93
2021/07/22 12:34:03;;;;;;;12.55;6.82;;;33.20;55.90;;;;;;4950108;28;20039;-95